createdAt,value
2023-05-04T00:01:28.420Z,6.35
2023-05-04T00:03:55.371Z,6.53
2023-05-04T00:06:22.213Z,5.50
2023-05-04T00:08:48.850Z,6.20
2023-05-04T00:11:15.696Z,8.60
2023-05-04T00:13:42.293Z,6.60
2023-05-04T00:16:10.774Z,6.47
2023-05-04T00:18:38.044Z,6.70
2023-05-04T00:21:04.720Z,6.45
2023-05-04T00:23:31.376Z,7.00
2023-05-04T00:26:01.070Z,6.13
2023-05-04T00:28:27.940Z,6.30
2023-05-04T00:30:55.304Z,6.60
2023-05-04T00:33:22.458Z,6.80
2023-05-04T00:35:49.120Z,6.53
2023-05-04T00:38:16.792Z,6.55
2023-05-04T00:40:43.473Z,6.13
2023-05-04T00:43:10.152Z,5.60
2023-05-04T00:45:37.643Z,6.40
2023-05-04T00:48:05.488Z,6.60
2023-05-04T00:50:32.385Z,6.25
2023-05-04T00:53:01.336Z,7.05
2023-05-04T00:55:28.187Z,6.50
2023-05-04T00:57:54.797Z,6.55
2023-05-04T01:00:21.530Z,6.25
2023-05-04T01:02:49.678Z,6.15
2023-05-04T01:05:16.520Z,6.90
2023-05-04T01:07:56.921Z,6.60
2023-05-04T01:11:07.181Z,6.15
2023-05-04T01:13:35.868Z,6.65
2023-05-04T01:16:03.437Z,6.28
2023-05-04T01:18:30.704Z,6.90
2023-05-04T01:20:57.456Z,6.75
2023-05-04T01:23:24.795Z,6.35
2023-05-04T01:26:13.627Z,6.50
2023-05-04T01:29:17.545Z,6.38
2023-05-04T01:31:46.076Z,6.75
2023-05-04T01:34:13.892Z,6.47
2023-05-04T01:36:41.595Z,6.30
2023-05-04T01:39:08.468Z,5.93
2023-05-04T01:41:36.336Z,6.38
2023-05-04T01:44:04.345Z,6.25
2023-05-04T01:46:31.549Z,6.90
2023-05-04T01:48:58.254Z,6.65
2023-05-04T01:51:25.054Z,6.90
2023-05-04T01:53:51.718Z,6.78
2023-05-04T01:56:18.607Z,6.35
2023-05-04T01:58:45.525Z,6.40
2023-05-04T02:01:12.191Z,6.70
2023-05-04T02:03:39.004Z,6.05
2023-05-04T02:06:06.158Z,6.53
2023-05-04T02:08:33.324Z,6.38
2023-05-04T02:10:59.958Z,6.75
2023-05-04T02:13:26.608Z,6.78
2023-05-04T02:15:53.449Z,6.82
2023-05-04T02:18:20.113Z,6.50
2023-05-04T02:20:46.732Z,7.25
2023-05-04T02:23:13.377Z,6.10
2023-05-04T02:25:41.651Z,6.90
2023-05-04T02:28:08.370Z,6.53
2023-05-04T02:30:35.662Z,6.25
2023-05-04T02:33:02.312Z,6.20
2023-05-04T02:35:29.056Z,6.45
2023-05-04T02:37:55.672Z,7.43
2023-05-04T02:40:22.324Z,6.75
2023-05-04T02:42:49.099Z,6.78
2023-05-04T02:45:15.973Z,7.00
2023-05-04T02:47:42.622Z,6.75
2023-05-04T02:50:09.663Z,6.45
2023-05-04T02:52:36.285Z,7.20
2023-05-04T02:55:03.668Z,6.60
2023-05-04T02:57:30.617Z,6.93
2023-05-04T02:59:57.241Z,7.18
2023-05-04T03:02:23.900Z,6.93
2023-05-04T03:04:50.867Z,7.47
2023-05-04T03:07:17.511Z,6.90
2023-05-04T03:09:46.058Z,7.10
2023-05-04T03:12:14.344Z,7.55
2023-05-04T03:14:41.005Z,7.63
2023-05-04T03:17:07.927Z,7.05
2023-05-04T03:19:34.621Z,7.10
2023-05-04T03:22:01.245Z,7.20
2023-05-04T03:24:27.888Z,6.85
2023-05-04T03:26:54.753Z,7.18
2023-05-04T03:29:21.441Z,7.50
2023-05-04T03:31:48.103Z,7.10
2023-05-04T03:34:14.975Z,7.07
2023-05-04T03:36:41.588Z,6.70
2023-05-04T03:39:08.211Z,6.80
2023-05-04T03:41:34.804Z,6.90
2023-05-04T03:44:01.399Z,6.82
2023-05-04T03:46:28.065Z,7.07
2023-05-04T03:48:54.744Z,7.10
2023-05-04T03:51:21.866Z,8.20
2023-05-04T03:53:48.556Z,7.20
2023-05-04T03:56:15.312Z,7.93
2023-05-04T03:58:41.982Z,6.82
2023-05-04T04:01:08.629Z,7.10
2023-05-04T04:03:36.673Z,7.43
2023-05-04T04:06:08.505Z,7.25
2023-05-04T04:08:35.835Z,8.18
2023-05-04T04:11:02.702Z,6.95
2023-05-04T04:13:29.351Z,6.60
2023-05-04T04:15:56.082Z,7.25
2023-05-04T04:18:25.917Z,7.88
2023-05-04T04:20:52.622Z,8.40
2023-05-04T04:23:19.396Z,7.32
2023-05-04T04:25:46.752Z,7.70
2023-05-04T04:28:14.491Z,7.50
2023-05-04T04:30:41.686Z,7.55
2023-05-04T04:33:09.168Z,6.75
2023-05-04T04:35:35.882Z,7.60
2023-05-04T04:38:03.873Z,7.15
2023-05-04T04:40:30.879Z,7.45
2023-05-04T04:42:57.578Z,7.72
2023-05-04T04:45:24.664Z,7.70
2023-05-04T04:47:51.414Z,7.57
2023-05-04T04:50:19.182Z,7.35
2023-05-04T04:52:46.244Z,7.47
2023-05-04T04:55:13.354Z,8.05
2023-05-04T04:57:40.018Z,6.82
2023-05-04T05:00:09.411Z,7.32
2023-05-04T05:02:36.419Z,7.53
2023-05-04T05:05:03.481Z,7.10
2023-05-04T05:07:30.174Z,7.93
2023-05-04T05:09:56.858Z,7.53
2023-05-04T05:12:23.529Z,7.75
2023-05-04T05:14:50.868Z,7.88
2023-05-04T05:17:19.081Z,7.25
2023-05-04T05:19:46.730Z,7.57
2023-05-04T05:22:13.570Z,6.85
2023-05-04T05:24:40.240Z,7.75
2023-05-04T05:27:06.875Z,7.30
2023-05-04T05:29:33.807Z,7.40
2023-05-04T05:32:00.481Z,7.55
2023-05-04T05:34:27.220Z,7.93
2023-05-04T05:36:54.119Z,7.97
2023-05-04T05:39:21.212Z,7.50
2023-05-04T05:41:47.817Z,7.45
2023-05-04T05:44:14.509Z,7.43
2023-05-04T05:46:41.395Z,7.45
2023-05-04T05:49:08.053Z,7.13
2023-05-04T05:51:34.816Z,8.05
2023-05-04T05:54:01.864Z,7.85
2023-05-04T05:56:28.514Z,7.05
2023-05-04T05:58:55.692Z,7.72
2023-05-04T06:01:22.395Z,7.15
2023-05-04T06:03:49.278Z,7.78
2023-05-04T06:06:17.206Z,7.43
2023-05-04T06:08:43.891Z,7.15
2023-05-04T06:11:11.733Z,7.47
2023-05-04T06:13:38.414Z,7.68
2023-05-04T06:16:05.127Z,7.40
2023-05-04T06:18:31.780Z,7.30
2023-05-04T06:21:02.013Z,6.97
2023-05-04T06:23:30.456Z,7.32
2023-05-04T06:25:57.312Z,6.95
2023-05-04T06:28:23.943Z,7.40
2023-05-04T06:30:50.794Z,7.40
2023-05-04T06:33:17.772Z,7.00
2023-05-04T06:35:45.400Z,7.07
2023-05-04T06:38:12.066Z,6.20
2023-05-04T06:40:38.802Z,6.50
2023-05-04T06:43:05.657Z,6.13
2023-05-04T06:45:37.408Z,6.45
2023-05-04T06:48:04.522Z,5.90
2023-05-04T06:50:33.084Z,5.57
2023-05-04T06:53:04.330Z,5.77
2023-05-04T06:55:31.733Z,5.87
2023-05-04T06:57:58.446Z,5.40
2023-05-04T07:00:25.653Z,5.73
2023-05-04T07:02:53.691Z,5.27
2023-05-04T07:05:22.211Z,4.90
2023-05-04T07:07:51.288Z,5.40
2023-05-04T07:10:19.520Z,5.17
2023-05-04T07:12:46.707Z,5.30
2023-05-04T07:15:13.477Z,5.10
2023-05-04T07:17:40.386Z,5.27
2023-05-04T07:20:08.056Z,5.33
2023-05-04T07:22:34.901Z,5.50
2023-05-04T07:25:02.208Z,5.10
2023-05-04T07:27:29.180Z,5.47
2023-05-04T07:29:56.287Z,5.40
2023-05-04T07:32:23.402Z,5.33
2023-05-04T07:34:50.305Z,5.10
2023-05-04T07:37:16.974Z,6.00
2023-05-04T07:39:43.892Z,5.90
2023-05-04T07:42:11.654Z,5.57
2023-05-04T07:44:38.508Z,5.63
2023-05-04T07:47:05.106Z,5.30
2023-05-04T07:49:32.000Z,6.00
2023-05-04T07:51:58.903Z,5.40
2023-05-04T07:54:25.667Z,5.57
2023-05-04T07:56:52.338Z,5.50
2023-05-04T07:59:19.422Z,5.37
2023-05-04T08:01:46.617Z,6.50
2023-05-04T08:04:13.359Z,5.87
2023-05-04T08:06:40.073Z,6.60
2023-05-04T08:09:06.758Z,5.97
2023-05-04T08:11:34.739Z,5.37
2023-05-04T08:14:01.564Z,6.13
2023-05-04T08:16:29.299Z,6.80
2023-05-04T08:18:57.125Z,5.70
2023-05-04T08:21:23.976Z,5.70
2023-05-04T08:23:50.722Z,6.07
2023-05-04T08:26:17.565Z,6.20
2023-05-04T08:28:45.679Z,6.03
2023-05-04T08:31:13.357Z,6.27
2023-05-04T08:33:40.157Z,5.17
2023-05-04T08:36:08.286Z,6.40
2023-05-04T08:38:35.095Z,6.53
2023-05-04T08:41:05.557Z,6.93
2023-05-04T08:43:38.276Z,6.20
2023-05-04T08:46:06.473Z,6.60
2023-05-04T08:48:36.093Z,6.93
2023-05-04T08:51:04.427Z,6.07
2023-05-04T08:53:32.609Z,6.50
2023-05-04T08:56:04.207Z,5.63
2023-05-04T08:58:31.989Z,5.67
2023-05-04T09:01:01.112Z,5.67
2023-05-04T09:03:29.689Z,7.20
2023-05-04T09:05:57.127Z,6.10
2023-05-04T09:08:23.958Z,6.20
2023-05-04T09:10:50.598Z,6.50
2023-05-04T09:13:17.403Z,5.80
2023-05-04T09:15:54.367Z,6.57
2023-05-04T09:18:21.242Z,6.63
2023-05-04T09:20:48.352Z,6.00
2023-05-04T09:23:17.737Z,6.70
2023-05-04T09:25:55.189Z,6.47
2023-05-04T09:28:38.575Z,6.17
2023-05-04T09:31:06.230Z,5.80
2023-05-04T09:33:33.033Z,5.97
2023-05-04T09:36:12.020Z,5.80
2023-05-04T09:38:38.641Z,5.80
2023-05-04T09:41:05.366Z,5.90
2023-05-04T09:43:39.572Z,6.50
2023-05-04T09:46:06.960Z,5.30
2023-05-04T09:48:36.249Z,5.87
2023-05-04T09:51:04.079Z,5.43
2023-05-04T09:53:32.163Z,5.80
2023-05-04T09:56:20.185Z,5.23
2023-05-04T09:58:49.114Z,4.97
2023-05-04T10:01:16.541Z,5.13
2023-05-04T10:03:44.134Z,4.83
2023-05-04T10:06:11.958Z,5.17
2023-05-04T10:08:41.015Z,5.23
2023-05-04T10:11:08.524Z,5.83
2023-05-04T10:13:35.358Z,6.00
2023-05-04T10:16:24.510Z,5.80
2023-05-04T10:19:27.707Z,5.50
2023-05-04T10:22:15.868Z,5.73
2023-05-04T10:25:14.735Z,5.83
2023-05-04T10:27:50.698Z,5.30
2023-05-04T10:30:21.253Z,5.77
2023-05-04T10:32:55.621Z,6.27
2023-05-04T10:35:22.780Z,5.83
2023-05-04T10:37:57.009Z,6.20
2023-05-04T10:40:38.326Z,5.80
2023-05-04T10:43:06.793Z,5.90
2023-05-04T10:45:41.672Z,5.70
2023-05-04T10:48:09.745Z,5.47
2023-05-04T10:50:51.548Z,5.17
2023-05-04T10:53:18.789Z,5.37
2023-05-04T10:55:47.072Z,5.47
2023-05-04T10:58:16.666Z,5.30
2023-05-04T11:00:47.879Z,4.87
2023-05-04T11:03:15.220Z,5.00
2023-05-04T11:05:43.877Z,5.27
2023-05-04T11:08:27.063Z,5.67
2023-05-04T11:11:07.471Z,5.47
2023-05-04T11:13:35.160Z,5.27
2023-05-04T11:16:02.140Z,4.90
2023-05-04T11:18:30.984Z,4.73
2023-05-04T11:20:58.118Z,6.13
2023-05-04T11:23:25.188Z,5.00
2023-05-04T11:25:52.291Z,5.20
2023-05-04T11:28:19.023Z,4.60
2023-05-04T11:30:47.595Z,5.27
2023-05-04T11:33:15.652Z,4.20
2023-05-04T11:35:44.129Z,5.47
2023-05-04T11:38:11.102Z,5.40
2023-05-04T11:40:40.921Z,5.40
2023-05-04T11:43:11.327Z,4.77
2023-05-04T11:45:40.766Z,5.00
2023-05-04T11:48:08.731Z,5.03
2023-05-04T11:50:35.885Z,5.10
2023-05-04T11:53:09.404Z,4.93
2023-05-04T11:55:39.856Z,4.80
2023-05-04T11:58:08.256Z,5.63
2023-05-04T12:00:49.029Z,4.40
2023-05-04T12:03:39.644Z,5.37
2023-05-04T12:06:15.242Z,4.80
2023-05-04T12:08:42.371Z,5.43
2023-05-04T12:11:25.965Z,5.40
2023-05-04T12:14:17.113Z,4.80
2023-05-04T12:16:57.620Z,5.63
2023-05-04T12:19:24.303Z,5.10
2023-05-04T12:21:54.972Z,5.53
2023-05-04T12:24:22.393Z,5.00
2023-05-04T12:26:49.196Z,4.90
2023-05-04T12:29:15.942Z,4.50
2023-05-04T12:31:42.576Z,4.43
2023-05-04T12:34:09.270Z,4.43
2023-05-04T12:36:35.870Z,4.90
2023-05-04T12:39:02.529Z,4.50
2023-05-04T12:41:29.196Z,4.47
2023-05-04T12:43:55.953Z,5.30
2023-05-04T12:46:22.791Z,4.47
2023-05-04T12:48:49.554Z,4.47
2023-05-04T12:51:16.312Z,4.80
2023-05-04T12:53:43.667Z,4.40
2023-05-04T12:56:10.354Z,3.90
2023-05-04T12:58:37.064Z,4.60
2023-05-04T13:01:04.200Z,4.47
2023-05-04T13:03:30.964Z,3.97
2023-05-04T13:05:58.028Z,3.87
2023-05-04T13:08:24.935Z,4.27
2023-05-04T13:10:52.157Z,4.13
2023-05-04T13:13:19.231Z,4.00
2023-05-04T13:15:50.248Z,4.43
2023-05-04T13:18:16.924Z,3.93
2023-05-04T13:20:43.810Z,4.23
2023-05-04T13:23:10.515Z,4.27
2023-05-04T13:25:37.461Z,4.00
2023-05-04T13:28:04.110Z,4.40
2023-05-04T13:30:31.042Z,3.80
2023-05-04T13:32:57.720Z,4.50
2023-05-04T13:35:24.519Z,4.17
2023-05-04T13:37:51.472Z,3.97
2023-05-04T13:40:18.185Z,4.80
2023-05-04T13:42:44.915Z,5.40
2023-05-04T13:45:11.957Z,4.33
2023-05-04T13:47:40.044Z,4.53
2023-05-04T13:50:08.390Z,4.20
2023-05-04T13:52:35.442Z,4.03
2023-05-04T13:55:02.176Z,4.40
2023-05-04T13:57:28.894Z,3.80
2023-05-04T14:00:06.673Z,4.00
2023-05-04T14:02:34.862Z,5.10
2023-05-04T14:05:02.700Z,3.83
2023-05-04T14:07:29.820Z,4.10
2023-05-04T14:09:56.534Z,4.23
2023-05-04T14:12:23.932Z,3.80
2023-05-04T14:14:50.826Z,3.90
2023-05-04T14:17:18.346Z,4.27
2023-05-04T14:19:45.236Z,3.80
2023-05-04T14:22:11.942Z,3.87
2023-05-04T14:24:38.544Z,4.50
2023-05-04T14:27:05.156Z,4.60
2023-05-04T14:29:33.195Z,4.43
2023-05-04T14:32:00.634Z,4.50
2023-05-04T14:34:28.286Z,4.50
2023-05-04T14:36:54.940Z,4.13
2023-05-04T14:39:22.293Z,4.57
2023-05-04T14:41:48.919Z,4.40
2023-05-04T14:44:15.555Z,4.03
2023-05-04T14:46:42.332Z,4.53
2023-05-04T14:49:08.947Z,4.57
2023-05-04T14:51:35.662Z,4.60
2023-05-04T14:54:02.925Z,4.50
2023-05-04T14:56:29.687Z,4.80
2023-05-04T14:58:57.274Z,4.13
2023-05-04T15:01:27.245Z,4.70
2023-05-04T15:03:54.045Z,4.40
2023-05-04T15:06:20.786Z,4.70
2023-05-04T15:08:47.467Z,4.60
2023-05-04T15:11:14.147Z,4.33
2023-05-04T15:13:40.909Z,4.63
2023-05-04T15:16:07.758Z,4.00
2023-05-04T15:18:34.464Z,4.10
2023-05-04T15:21:01.092Z,4.10
2023-05-04T15:23:27.720Z,4.67
2023-05-04T15:25:54.367Z,4.40
2023-05-04T15:28:22.833Z,4.50
2023-05-04T15:30:49.688Z,4.23
2023-05-04T15:33:16.381Z,4.07
2023-05-04T15:35:43.032Z,4.43
2023-05-04T15:38:09.700Z,4.50
2023-05-04T15:40:36.433Z,4.40
2023-05-04T15:43:03.717Z,4.40
2023-05-04T15:45:30.346Z,4.23
2023-05-04T15:47:59.365Z,4.53
2023-05-04T15:50:26.769Z,4.10
2023-05-04T15:52:53.395Z,4.47
2023-05-04T15:55:25.964Z,4.20
2023-05-04T15:57:54.058Z,4.50
2023-05-04T16:00:21.250Z,4.40
2023-05-04T16:02:48.141Z,4.83
2023-05-04T16:05:14.982Z,4.33
2023-05-04T16:07:41.670Z,3.93
2023-05-04T16:10:09.437Z,4.43
2023-05-04T16:12:36.505Z,4.80
2023-05-04T16:15:03.340Z,4.03
2023-05-04T16:17:34.918Z,4.50
2023-05-04T16:20:02.984Z,4.80
2023-05-04T16:22:29.754Z,4.40
2023-05-04T16:24:56.492Z,4.50
2023-05-04T16:27:29.279Z,4.00
2023-05-04T16:29:56.195Z,5.10
2023-05-04T16:32:23.079Z,4.60
2023-05-04T16:34:49.753Z,4.33
2023-05-04T16:37:18.402Z,4.40
2023-05-04T16:39:45.053Z,4.33
2023-05-04T16:42:11.650Z,4.40
2023-05-04T16:44:38.421Z,4.27
2023-05-04T16:47:05.504Z,4.10
2023-05-04T16:49:32.318Z,4.77
2023-05-04T16:51:59.013Z,4.07
2023-05-04T16:54:26.036Z,4.53
2023-05-04T16:56:52.755Z,4.27
2023-05-04T16:59:19.417Z,4.20
2023-05-04T17:01:47.010Z,4.30
2023-05-04T17:04:13.713Z,3.90
2023-05-04T17:06:40.332Z,4.10
2023-05-04T17:09:07.057Z,4.53
2023-05-04T17:11:34.478Z,4.70
2023-05-04T17:14:01.352Z,4.40
2023-05-04T17:16:28.040Z,4.00
2023-05-04T17:18:54.902Z,4.50
2023-05-04T17:21:21.521Z,4.20
2023-05-04T17:23:48.160Z,4.30
2023-05-04T17:26:15.736Z,4.67
2023-05-04T17:28:42.398Z,4.23
2023-05-04T17:31:12.622Z,4.37
2023-05-04T17:33:39.621Z,4.50
2023-05-04T17:36:07.621Z,4.70
2023-05-04T17:38:34.470Z,4.30
2023-05-04T17:41:01.168Z,4.20
2023-05-04T17:43:27.979Z,4.20
2023-05-04T17:45:55.963Z,4.77
2023-05-04T17:48:24.005Z,4.47
2023-05-04T17:50:51.356Z,4.60
2023-05-04T17:53:18.059Z,4.20
2023-05-04T17:55:44.769Z,4.43
2023-05-04T17:58:11.418Z,4.33
2023-05-04T18:00:38.071Z,4.77
2023-05-04T18:03:04.877Z,4.30
2023-05-04T18:05:32.108Z,4.53
2023-05-04T18:07:59.149Z,4.73
2023-05-04T18:10:25.962Z,4.33
2023-05-04T18:12:52.765Z,4.83
2023-05-04T18:15:19.638Z,4.57
2023-05-04T18:17:48.553Z,5.23
2023-05-04T18:20:15.779Z,4.53
2023-05-04T18:22:42.417Z,4.50
2023-05-04T18:25:09.626Z,4.70
2023-05-04T18:27:36.974Z,4.67
2023-05-04T18:30:05.457Z,5.40
2023-05-04T18:32:32.835Z,4.27
2023-05-04T18:34:59.550Z,8.50
2023-05-04T18:37:26.325Z,5.57
2023-05-04T18:39:52.982Z,4.90
2023-05-04T18:42:19.676Z,5.30
2023-05-04T18:44:46.347Z,4.97
2023-05-04T18:47:13.107Z,4.93
2023-05-04T18:49:39.770Z,4.63
2023-05-04T18:52:06.416Z,5.30
2023-05-04T18:54:33.208Z,4.80
2023-05-04T18:56:59.835Z,5.30
2023-05-04T18:59:26.732Z,5.90
2023-05-04T19:01:53.358Z,4.97
2023-05-04T19:04:20.035Z,5.10
2023-05-04T19:06:47.674Z,5.27
2023-05-04T19:09:14.913Z,5.20
2023-05-04T19:11:41.643Z,5.90
2023-05-04T19:14:08.263Z,5.33
2023-05-04T19:16:34.964Z,5.40
2023-05-04T19:19:02.543Z,5.17
2023-05-04T19:21:29.304Z,5.07
2023-05-04T19:23:56.134Z,5.50
2023-05-04T19:26:23.394Z,5.70
2023-05-04T19:28:50.082Z,5.80
2023-05-04T19:31:16.864Z,6.60
2023-05-04T19:33:48.316Z,6.20
2023-05-04T19:36:16.190Z,5.90
2023-05-04T19:38:42.905Z,6.43
2023-05-04T19:41:09.648Z,6.13
2023-05-04T19:43:38.287Z,5.93
2023-05-04T19:46:05.014Z,6.17
2023-05-04T19:48:31.783Z,6.73
2023-05-04T19:50:58.412Z,6.07
2023-05-04T19:53:25.261Z,6.37
2023-05-04T19:55:52.202Z,6.00
2023-05-04T19:58:19.106Z,5.90
2023-05-04T20:00:45.773Z,5.83
2023-05-04T20:03:12.452Z,5.70
2023-05-04T20:05:39.384Z,5.90
2023-05-04T20:08:06.151Z,7.00
2023-05-04T20:10:32.806Z,6.22
2023-05-04T20:12:59.550Z,6.90
2023-05-04T20:15:26.311Z,6.40
2023-05-04T20:17:53.130Z,6.33
2023-05-04T20:20:21.464Z,6.10
2023-05-04T20:22:51.929Z,6.30
2023-05-04T20:25:19.822Z,6.70
2023-05-04T20:27:48.439Z,6.32
2023-05-04T20:30:15.564Z,6.13
2023-05-04T20:32:42.632Z,5.55
2023-05-04T20:35:09.601Z,5.72
2023-05-04T20:37:36.339Z,6.07
2023-05-04T20:40:03.060Z,5.95
2023-05-04T20:42:29.863Z,6.50
2023-05-04T20:44:56.507Z,5.80
2023-05-04T20:47:23.196Z,5.82
2023-05-04T20:49:49.895Z,6.40
2023-05-04T20:52:16.504Z,6.03
2023-05-04T20:54:43.148Z,6.40
2023-05-04T20:57:09.840Z,6.30
2023-05-04T20:59:36.684Z,6.88
2023-05-04T21:02:03.349Z,6.20
2023-05-04T21:04:30.006Z,6.20
2023-05-04T21:06:57.556Z,5.90
2023-05-04T21:09:24.289Z,6.18
2023-05-04T21:11:50.913Z,6.23
2023-05-04T21:14:17.539Z,6.20
2023-05-04T21:16:44.185Z,6.68
2023-05-04T21:19:10.793Z,6.60
2023-05-04T21:21:40.740Z,5.97
2023-05-04T21:24:12.242Z,6.45
2023-05-04T21:26:39.257Z,5.75
2023-05-04T21:29:05.924Z,5.82
2023-05-04T21:31:33.253Z,6.20
2023-05-04T21:33:59.928Z,5.70
2023-05-04T21:36:27.385Z,6.30
2023-05-04T21:38:55.255Z,6.30
2023-05-04T21:41:22.498Z,6.00
2023-05-04T21:43:49.141Z,6.55
2023-05-04T21:46:15.929Z,6.45
2023-05-04T21:48:42.580Z,5.88
2023-05-04T21:51:09.219Z,6.80
2023-05-04T21:53:35.853Z,6.30
2023-05-04T21:56:09.898Z,6.43
2023-05-04T21:58:39.446Z,6.50
2023-05-04T22:01:07.068Z,6.60
2023-05-04T22:03:34.092Z,6.55
2023-05-04T22:06:01.051Z,6.70
2023-05-04T22:08:28.671Z,6.50
2023-05-04T22:10:57.049Z,6.80
2023-05-04T22:13:23.950Z,6.40
2023-05-04T22:15:51.126Z,6.07
2023-05-04T22:18:18.090Z,6.45
2023-05-04T22:20:45.105Z,6.63
2023-05-04T22:23:11.911Z,7.68
2023-05-04T22:25:39.128Z,6.82
2023-05-04T22:28:06.616Z,7.47
2023-05-04T22:30:33.378Z,6.68
2023-05-04T22:33:00.140Z,6.40
2023-05-04T22:35:27.224Z,6.43
2023-05-04T22:37:53.970Z,6.10
2023-05-04T22:40:20.835Z,6.78
2023-05-04T22:42:47.531Z,6.60
2023-05-04T22:45:14.847Z,6.97
2023-05-04T22:47:42.206Z,6.35
2023-05-04T22:50:10.493Z,6.97
2023-05-04T22:52:38.172Z,7.47
2023-05-04T22:55:05.765Z,7.20
2023-05-04T22:57:32.507Z,6.80
2023-05-04T22:59:59.130Z,6.50
2023-05-04T23:02:25.851Z,7.38
2023-05-04T23:04:53.181Z,7.20
2023-05-04T23:07:20.013Z,7.88
2023-05-04T23:09:47.413Z,7.50
2023-05-04T23:12:15.177Z,7.30
2023-05-04T23:14:42.243Z,7.85
2023-05-04T23:17:10.351Z,6.63
2023-05-04T23:19:36.958Z,7.03
2023-05-04T23:22:03.778Z,7.53
2023-05-04T23:24:30.480Z,6.80
2023-05-04T23:26:58.666Z,6.85
2023-05-04T23:29:25.722Z,6.75
2023-05-04T23:31:53.596Z,6.97
2023-05-04T23:34:20.271Z,6.55
2023-05-04T23:36:46.919Z,7.28
2023-05-04T23:39:13.564Z,7.82
2023-05-04T23:41:40.333Z,6.63
2023-05-04T23:44:07.177Z,7.60
2023-05-04T23:46:33.832Z,7.30
2023-05-04T23:49:00.509Z,7.50
2023-05-04T23:51:28.495Z,6.68
2023-05-04T23:53:55.830Z,6.90
2023-05-04T23:56:22.664Z,6.80
2023-05-04T23:58:49.304Z,6.45
